createdAt,value
2018-03-18T00:02:01.537Z,92.20
2018-03-18T00:04:36.906Z,92.10
2018-03-18T00:07:06.354Z,92.10
2018-03-18T00:09:45.092Z,92.40
2018-03-18T00:12:14.427Z,92.40
2018-03-18T00:14:52.141Z,92.20
2018-03-18T00:17:26.136Z,92.70
2018-03-18T00:22:35.217Z,92.50
2018-03-18T00:25:13.586Z,92.70
2018-03-18T00:27:47.454Z,92.80
2018-03-18T00:33:08.635Z,92.70
2018-03-18T00:35:43.166Z,92.80
2018-03-18T00:38:14.580Z,92.60
2018-03-18T00:40:42.895Z,92.40
2018-03-18T00:43:11.019Z,92.50
2018-03-18T00:45:46.495Z,92.60
2018-03-18T00:48:17.856Z,92.80
2018-03-18T00:50:48.898Z,92.80
2018-03-18T00:53:19.765Z,92.60
2018-03-18T00:55:50.753Z,92.80
2018-03-18T00:58:21.477Z,92.90
2018-03-18T01:00:59.428Z,92.70
2018-03-18T01:03:28.044Z,92.80
2018-03-18T01:06:01.694Z,93.10
2018-03-18T01:08:42.856Z,92.80
2018-03-18T01:11:20.062Z,92.90
2018-03-18T01:13:51.121Z,92.90
2018-03-18T01:16:19.451Z,92.80
2018-03-18T01:18:47.088Z,92.80
2018-03-18T01:21:14.628Z,92.70
2018-03-18T01:23:42.177Z,92.60
2018-03-18T01:26:09.730Z,92.60
2018-03-18T01:28:38.028Z,92.60
2018-03-18T01:31:05.728Z,92.60
2018-03-18T01:33:33.260Z,92.50
2018-03-18T01:36:01.578Z,92.60
2018-03-18T01:38:29.271Z,92.50
2018-03-18T01:40:56.815Z,92.60
2018-03-18T01:43:24.412Z,92.30
2018-03-18T01:45:51.963Z,92.60
2018-03-18T01:48:19.509Z,92.80
2018-03-18T01:50:48.693Z,92.90
2018-03-18T01:53:22.442Z,92.90
2018-03-18T01:55:50.766Z,92.90
2018-03-18T01:58:18.298Z,92.90
2018-03-18T02:00:46.611Z,92.80
2018-03-18T02:03:14.151Z,92.70
2018-03-18T02:05:41.697Z,92.60
2018-03-18T02:08:09.233Z,92.70
2018-03-18T02:10:36.780Z,92.60
2018-03-18T02:13:05.084Z,92.60
2018-03-18T02:15:33.416Z,92.60
2018-03-18T02:18:00.986Z,92.60
2018-03-18T02:20:28.538Z,92.60
2018-03-18T02:22:56.444Z,92.50
2018-03-18T02:25:24.430Z,92.50
2018-03-18T02:27:52.230Z,92.40
2018-03-18T02:30:20.773Z,92.50
2018-03-18T02:32:48.364Z,92.50
2018-03-18T02:35:15.911Z,92.60
2018-03-18T02:37:43.448Z,92.50
2018-03-18T02:40:10.998Z,92.40
2018-03-18T02:42:38.646Z,92.20
2018-03-18T02:45:06.189Z,92.20
2018-03-18T02:47:33.767Z,92.50
2018-03-18T02:50:01.910Z,92.30
2018-03-18T02:52:29.462Z,92.30
2018-03-18T02:54:56.999Z,92.40
2018-03-18T02:57:24.568Z,92.60
2018-03-18T02:59:52.153Z,92.30
2018-03-18T03:02:19.710Z,92.10
2018-03-18T03:04:48.028Z,92.20
2018-03-18T03:07:15.586Z,92.20
2018-03-18T03:09:43.123Z,92.00
2018-03-18T03:12:10.683Z,92.00
2018-03-18T03:14:38.219Z,92.00
2018-03-18T03:17:05.789Z,91.60
2018-03-18T03:19:33.336Z,91.90
2018-03-18T03:22:00.889Z,91.90
2018-03-18T03:24:29.203Z,91.80
2018-03-18T03:26:57.509Z,91.80
2018-03-18T03:29:25.050Z,91.80
2018-03-18T03:31:53.354Z,91.80
2018-03-18T03:34:20.920Z,91.80
2018-03-18T03:36:48.455Z,92.10
2018-03-18T03:39:16.002Z,91.80
2018-03-18T03:41:43.535Z,91.80
2018-03-18T03:44:11.865Z,91.30
2018-03-18T03:46:39.429Z,91.30
2018-03-18T03:49:06.994Z,91.80
2018-03-18T03:51:34.526Z,91.90
2018-03-18T03:54:02.949Z,91.80
2018-03-18T03:56:30.474Z,91.80
2018-03-18T03:58:58.023Z,91.30
2018-03-18T04:01:25.546Z,91.00
2018-03-18T04:03:53.112Z,91.50
2018-03-18T04:06:21.422Z,91.20
2018-03-18T04:08:48.976Z,91.20
2018-03-18T04:11:17.270Z,90.90
2018-03-18T04:13:45.591Z,91.00
2018-03-18T04:16:13.133Z,91.00
2018-03-18T04:18:41.446Z,91.10
2018-03-18T04:21:08.983Z,91.10
2018-03-18T04:23:37.309Z,90.90
2018-03-18T04:26:04.851Z,90.90
2018-03-18T04:28:33.174Z,90.80
2018-03-18T04:31:00.698Z,90.80
2018-03-18T04:33:28.640Z,91.00
2018-03-18T04:35:56.188Z,90.80
2018-03-18T04:38:23.718Z,90.40
2018-03-18T04:40:51.262Z,90.20
2018-03-18T04:43:18.800Z,90.20
2018-03-18T04:45:46.350Z,90.10
2018-03-18T04:48:14.651Z,90.20
2018-03-18T04:50:42.230Z,90.10
2018-03-18T04:53:09.778Z,89.80
2018-03-18T04:55:38.104Z,89.70
2018-03-18T04:58:05.683Z,89.60
2018-03-18T05:00:33.343Z,89.60
2018-03-18T05:03:00.882Z,89.20
2018-03-18T05:05:28.508Z,89.10
2018-03-18T05:07:56.036Z,89.20
2018-03-18T05:10:24.355Z,88.90
2018-03-18T05:12:51.883Z,88.90
2018-03-18T05:15:19.431Z,88.00
2018-03-18T05:17:46.969Z,87.90
2018-03-18T05:20:14.559Z,88.40
2018-03-18T05:22:42.092Z,88.40
2018-03-18T05:25:09.677Z,88.40
2018-03-18T05:27:37.202Z,87.90
2018-03-18T05:30:04.746Z,87.90
2018-03-18T05:32:32.279Z,86.90
2018-03-18T05:35:00.607Z,86.90
2018-03-18T05:37:28.140Z,86.80
2018-03-18T05:39:55.746Z,86.80
2018-03-18T05:42:23.291Z,86.90
2018-03-18T05:44:51.582Z,85.20
2018-03-18T05:47:19.188Z,85.20
2018-03-18T05:49:46.736Z,85.20
2018-03-18T05:52:14.295Z,84.30
2018-03-18T05:54:42.589Z,84.50
2018-03-18T05:57:10.917Z,84.70
2018-03-18T05:59:38.452Z,84.70
2018-03-18T06:02:06.779Z,83.80
2018-03-18T06:04:34.306Z,83.80
2018-03-18T06:07:02.617Z,83.40
2018-03-18T06:09:30.143Z,83.40
2018-03-18T06:11:57.704Z,82.60
2018-03-18T06:14:25.276Z,83.90
2018-03-18T06:16:52.817Z,83.20
2018-03-18T06:19:20.344Z,82.70
2018-03-18T06:21:47.895Z,83.00
2018-03-18T06:24:16.059Z,82.50
2018-03-18T06:26:43.618Z,82.40
2018-03-18T06:29:11.151Z,82.60
2018-03-18T06:31:39.486Z,81.20
2018-03-18T06:34:07.036Z,81.20
2018-03-18T06:36:34.617Z,81.50
2018-03-18T06:39:02.160Z,80.80
2018-03-18T06:41:30.477Z,80.60
2018-03-18T06:43:58.030Z,80.60
2018-03-18T06:46:25.563Z,79.80
2018-03-18T06:48:53.115Z,79.80
2018-03-18T06:51:20.639Z,79.80
2018-03-18T06:53:49.012Z,79.80
2018-03-18T06:56:16.543Z,79.80
2018-03-18T06:58:44.100Z,79.70
2018-03-18T07:01:11.623Z,79.80
2018-03-18T07:03:39.175Z,79.80
2018-03-18T07:06:06.711Z,79.90
2018-03-18T07:08:34.264Z,79.70
2018-03-18T07:11:02.603Z,79.60
2018-03-18T07:13:30.173Z,79.60
2018-03-18T07:15:57.735Z,78.90
2018-03-18T07:18:25.283Z,78.50
2018-03-18T07:20:52.832Z,79.10
2018-03-18T07:23:20.392Z,78.90
2018-03-18T07:25:47.918Z,78.20
2018-03-18T07:28:15.478Z,78.40
2018-03-18T07:30:43.008Z,78.80
2018-03-18T07:33:10.605Z,78.50
2018-03-18T07:35:38.124Z,78.30
2018-03-18T07:38:05.774Z,78.20
2018-03-18T07:40:33.314Z,77.60
2018-03-18T07:43:00.883Z,78.60
2018-03-18T07:45:28.440Z,78.40
2018-03-18T07:47:55.970Z,78.00
2018-03-18T07:50:23.552Z,77.80
2018-03-18T07:52:51.072Z,78.10
2018-03-18T07:55:18.627Z,77.80
2018-03-18T07:57:46.158Z,78.20
2018-03-18T08:00:13.711Z,77.90
2018-03-18T08:02:41.242Z,77.80
2018-03-18T08:05:08.817Z,77.30
2018-03-18T08:07:37.003Z,77.70
2018-03-18T08:10:04.549Z,78.20
2018-03-18T08:12:32.084Z,77.80
2018-03-18T08:15:00.519Z,77.20
2018-03-18T08:17:28.077Z,77.10
2018-03-18T08:19:55.631Z,77.50
2018-03-18T08:22:23.192Z,77.30
2018-03-18T08:24:51.519Z,76.80
2018-03-18T08:27:19.830Z,76.50
2018-03-18T08:29:47.388Z,76.50
2018-03-18T08:32:14.931Z,76.50
2018-03-18T08:34:42.482Z,76.30
2018-03-18T08:37:10.778Z,77.30
2018-03-18T08:39:39.106Z,76.60
2018-03-18T08:42:06.661Z,76.60
2018-03-18T08:44:34.290Z,77.00
2018-03-18T08:47:01.832Z,76.40
2018-03-18T08:49:29.397Z,76.60
2018-03-18T08:51:56.946Z,76.40
2018-03-18T08:54:24.518Z,75.80
2018-03-18T08:56:52.096Z,76.60
2018-03-18T08:59:19.691Z,76.30
2018-03-18T09:01:47.216Z,76.40
2018-03-18T09:04:15.529Z,75.80
2018-03-18T09:06:43.091Z,75.10
2018-03-18T09:09:10.626Z,76.10
2018-03-18T09:11:38.175Z,75.30
2018-03-18T09:14:05.703Z,74.40
2018-03-18T09:16:33.265Z,74.70
2018-03-18T09:19:01.577Z,74.90
2018-03-18T09:21:29.136Z,74.80
2018-03-18T09:23:56.675Z,74.60
2018-03-18T09:26:24.236Z,74.60
2018-03-18T09:28:51.774Z,74.00
2018-03-18T09:31:19.441Z,74.10
2018-03-18T09:33:46.982Z,73.80
2018-03-18T09:36:15.313Z,75.30
2018-03-18T09:38:42.844Z,75.20
2018-03-18T09:41:11.173Z,74.40
2018-03-18T09:43:38.731Z,74.40
2018-03-18T09:46:06.381Z,74.10
2018-03-18T09:48:34.691Z,75.50
2018-03-18T09:51:02.981Z,74.50
2018-03-18T09:53:31.314Z,74.20
2018-03-18T09:55:59.611Z,74.50
2018-03-18T09:58:27.233Z,74.50
2018-03-18T10:00:54.771Z,73.50
2018-03-18T10:03:22.318Z,73.50
2018-03-18T10:05:50.070Z,73.40
2018-03-18T10:08:17.648Z,73.50
2018-03-18T10:10:45.170Z,73.40
2018-03-18T10:13:12.723Z,72.70
2018-03-18T10:15:40.248Z,73.10
2018-03-18T10:18:07.819Z,72.50
2018-03-18T10:20:35.366Z,73.10
2018-03-18T10:23:02.923Z,72.90
2018-03-18T10:25:30.461Z,73.30
2018-03-18T10:27:58.027Z,72.20
2018-03-18T10:30:25.565Z,72.50
2018-03-18T10:32:53.884Z,71.80
2018-03-18T10:35:21.407Z,71.70
2018-03-18T10:37:48.957Z,71.90
2018-03-18T10:40:16.484Z,71.50
2018-03-18T10:42:44.037Z,73.20
2018-03-18T10:45:12.330Z,72.80
2018-03-18T10:47:40.638Z,72.90
2018-03-18T10:50:08.168Z,72.90
2018-03-18T10:52:35.696Z,71.30
2018-03-18T10:55:03.261Z,70.60
2018-03-18T10:57:30.799Z,70.80
2018-03-18T10:59:58.426Z,70.30
2018-03-18T11:02:25.942Z,71.00
2018-03-18T11:04:53.494Z,70.30
2018-03-18T11:07:21.892Z,70.50
2018-03-18T11:09:49.450Z,70.50
2018-03-18T11:12:16.991Z,70.10
2018-03-18T11:14:44.547Z,69.30
2018-03-18T11:17:12.075Z,69.20
2018-03-18T11:19:39.632Z,68.90
2018-03-18T11:22:07.936Z,69.00
2018-03-18T11:24:35.498Z,68.90
2018-03-18T11:27:03.137Z,70.40
2018-03-18T11:29:30.710Z,70.30
2018-03-18T11:31:59.000Z,69.00
2018-03-18T11:34:27.326Z,69.60
2018-03-18T11:36:54.855Z,69.60
2018-03-18T11:39:23.184Z,69.00
2018-03-18T11:41:50.719Z,69.00
2018-03-18T11:44:19.027Z,68.50
2018-03-18T11:46:46.577Z,68.50
2018-03-18T11:49:14.883Z,69.10
2018-03-18T11:51:42.432Z,69.00
2018-03-18T11:54:10.716Z,68.10
2018-03-18T11:56:38.287Z,68.00
2018-03-18T11:59:05.814Z,68.60
2018-03-18T12:01:33.364Z,68.50
2018-03-18T12:04:00.906Z,69.90
2018-03-18T12:06:29.265Z,69.90
2018-03-18T12:08:58.652Z,69.90
2018-03-18T12:11:26.219Z,69.10
2018-03-18T12:13:53.836Z,69.40
2018-03-18T12:16:21.377Z,69.40
2018-03-18T12:18:48.909Z,68.90
2018-03-18T12:21:17.224Z,68.00
2018-03-18T12:23:44.746Z,68.00
2018-03-18T12:26:14.056Z,70.10
2018-03-18T12:28:41.900Z,70.10
2018-03-18T12:31:09.456Z,69.20
2018-03-18T12:33:37.746Z,68.90
2018-03-18T12:36:06.064Z,69.00
2018-03-18T12:38:33.680Z,69.00
2018-03-18T12:41:01.252Z,69.40
2018-03-18T12:43:30.392Z,69.40
2018-03-18T12:45:58.726Z,70.30
2018-03-18T12:48:26.466Z,70.20
2018-03-18T12:50:54.054Z,70.30
2018-03-18T12:53:21.583Z,69.80
2018-03-18T12:55:49.124Z,69.80
2018-03-18T12:58:16.667Z,70.00
2018-03-18T13:00:44.226Z,68.10
2018-03-18T13:03:11.764Z,68.50
2018-03-18T13:05:39.395Z,69.20
2018-03-18T13:08:06.943Z,69.10
2018-03-18T13:10:35.618Z,70.10
2018-03-18T13:13:03.167Z,70.00
2018-03-18T13:15:30.722Z,69.50
2018-03-18T13:17:58.320Z,70.50
2018-03-18T13:20:26.511Z,70.60
2018-03-18T13:22:54.965Z,71.10
2018-03-18T13:25:22.498Z,71.00
2018-03-18T13:27:50.093Z,71.20
2018-03-18T13:30:17.627Z,71.10
2018-03-18T13:32:45.228Z,71.50
2018-03-18T13:35:12.768Z,71.10
2018-03-18T13:37:40.320Z,70.40
2018-03-18T13:40:07.855Z,70.50
2018-03-18T13:42:36.655Z,70.30
2018-03-18T13:45:04.193Z,70.90
2018-03-18T13:47:31.759Z,70.40
2018-03-18T13:49:59.326Z,70.30
2018-03-18T13:52:26.926Z,70.80
2018-03-18T13:54:55.230Z,70.40
2018-03-18T13:57:22.797Z,70.40
2018-03-18T13:59:50.670Z,70.10
2018-03-18T14:02:19.097Z,70.50
2018-03-18T14:04:46.933Z,70.80
2018-03-18T14:07:14.738Z,70.80
2018-03-18T14:09:42.544Z,70.40
2018-03-18T14:12:10.281Z,70.20
2018-03-18T14:14:38.100Z,70.90
2018-03-18T14:17:05.859Z,71.00
2018-03-18T14:19:33.818Z,70.90
2018-03-18T14:22:01.941Z,71.30
2018-03-18T14:24:29.761Z,70.90
2018-03-18T14:26:57.614Z,70.60
2018-03-18T14:29:25.235Z,70.60
2018-03-18T14:31:52.763Z,71.10
2018-03-18T14:34:20.579Z,71.50
2018-03-18T14:36:48.374Z,71.50
2018-03-18T14:39:16.189Z,70.60
2018-03-18T14:41:44.002Z,71.80
2018-03-18T14:44:11.595Z,71.20
2018-03-18T14:46:39.138Z,71.70
2018-03-18T14:49:06.692Z,71.80
2018-03-18T14:51:34.224Z,71.50
2018-03-18T14:54:01.794Z,70.90
2018-03-18T14:56:29.362Z,70.90
2018-03-18T14:58:57.839Z,71.40
2018-03-18T15:01:26.154Z,71.30
2018-03-18T15:03:53.724Z,71.40
2018-03-18T15:06:21.263Z,71.30
2018-03-18T15:08:49.582Z,71.50
2018-03-18T15:11:17.138Z,71.40
2018-03-18T15:13:45.457Z,71.00
2018-03-18T15:16:12.998Z,70.90
2018-03-18T15:18:41.331Z,71.20
2018-03-18T15:21:08.872Z,71.20
2018-03-18T15:23:37.495Z,71.30
2018-03-18T15:26:05.047Z,71.20
2018-03-18T15:28:32.573Z,72.00
2018-03-18T15:31:00.132Z,72.00
2018-03-18T15:33:27.669Z,71.30
2018-03-18T15:35:55.231Z,71.50
2018-03-18T15:38:22.789Z,72.40
2018-03-18T15:40:51.102Z,72.30
2018-03-18T15:43:18.659Z,72.20
2018-03-18T15:45:46.236Z,72.30
2018-03-18T15:48:13.778Z,72.40
2018-03-18T15:50:42.136Z,72.50
2018-03-18T15:53:09.671Z,72.50
2018-03-18T15:55:37.253Z,73.10
2018-03-18T15:58:05.564Z,73.00
2018-03-18T16:00:33.158Z,72.90
2018-03-18T16:03:00.759Z,73.20
2018-03-18T16:05:29.081Z,73.50
2018-03-18T16:07:56.610Z,73.50
2018-03-18T16:10:24.956Z,73.50
2018-03-18T16:12:52.488Z,73.40
2018-03-18T16:15:20.819Z,73.80
2018-03-18T16:17:48.346Z,73.70
2018-03-18T16:20:16.679Z,74.40
2018-03-18T16:22:44.221Z,74.30
2018-03-18T16:25:11.791Z,73.50
2018-03-18T16:27:40.155Z,73.30
2018-03-18T16:30:20.283Z,74.00
2018-03-18T16:32:47.963Z,74.00
2018-03-18T16:35:15.507Z,73.90
2018-03-18T16:37:43.090Z,74.30
2018-03-18T16:40:10.662Z,73.80
2018-03-18T16:42:38.233Z,73.90
2018-03-18T16:45:05.767Z,74.20
2018-03-18T16:47:33.314Z,74.30
2018-03-18T16:50:00.903Z,74.80
2018-03-18T16:52:29.261Z,73.90
2018-03-18T16:54:56.826Z,74.00
2018-03-18T16:57:24.384Z,73.80
2018-03-18T16:59:51.922Z,73.60
2018-03-18T17:02:20.258Z,74.30
2018-03-18T17:04:47.844Z,74.00
2018-03-18T17:07:15.431Z,74.20
2018-03-18T17:09:43.000Z,73.20
2018-03-18T17:12:10.580Z,74.70
2018-03-18T17:14:38.129Z,73.70
2018-03-18T17:17:05.694Z,73.90
2018-03-18T17:19:33.247Z,73.70
2018-03-18T17:22:00.811Z,73.70
2018-03-18T17:24:29.203Z,74.30
2018-03-18T17:26:56.798Z,74.30
2018-03-18T17:29:24.331Z,74.20
2018-03-18T17:31:52.659Z,74.00
2018-03-18T17:34:20.205Z,73.90
2018-03-18T17:36:47.771Z,74.00
2018-03-18T17:39:16.087Z,74.10
2018-03-18T17:41:43.641Z,74.70
2018-03-18T17:44:23.359Z,74.30
2018-03-18T17:47:03.253Z,74.70
2018-03-18T17:49:42.981Z,73.80
2018-03-18T17:52:23.159Z,73.90
2018-03-18T17:55:02.516Z,73.80
2018-03-18T17:57:30.089Z,74.00
2018-03-18T17:59:57.614Z,74.20
2018-03-18T18:02:25.165Z,73.10
2018-03-18T18:04:52.706Z,73.00
2018-03-18T18:07:20.285Z,73.80
2018-03-18T18:09:48.608Z,73.80
2018-03-18T18:12:16.152Z,73.80
2018-03-18T18:14:44.651Z,73.60
2018-03-18T18:17:12.967Z,73.70
2018-03-18T18:19:40.531Z,73.50
2018-03-18T18:22:09.182Z,73.50
2018-03-18T18:24:36.860Z,73.70
2018-03-18T18:27:06.469Z,73.80
2018-03-18T18:29:34.030Z,73.90
2018-03-18T18:32:01.584Z,74.00
2018-03-18T18:34:29.408Z,74.00
2018-03-18T18:36:57.002Z,74.20
2018-03-18T18:39:32.822Z,74.30
2018-03-18T18:44:38.943Z,74.40
2018-03-18T18:47:12.708Z,74.50
2018-03-18T18:49:50.181Z,73.80
2018-03-18T18:55:12.950Z,74.40
2018-03-18T18:57:47.521Z,74.10
2018-03-18T19:00:19.414Z,73.40
2018-03-18T19:02:57.515Z,74.10
2018-03-18T19:05:30.140Z,74.20
2018-03-18T19:08:01.274Z,74.00
2018-03-18T19:10:28.959Z,73.70
2018-03-18T19:12:58.348Z,74.30
2018-03-18T19:15:25.895Z,73.60
2018-03-18T19:17:53.531Z,73.90
2018-03-18T19:20:21.200Z,73.40
2018-03-18T19:22:48.748Z,73.70
2018-03-18T19:25:17.084Z,73.20
2018-03-18T19:27:45.750Z,73.20
2018-03-18T19:30:13.319Z,73.10
2018-03-18T19:32:41.616Z,73.10
2018-03-18T19:35:09.936Z,73.30
2018-03-18T19:37:37.467Z,73.20
2018-03-18T19:40:06.427Z,73.80
2018-03-18T19:42:34.400Z,73.80
2018-03-18T19:45:02.367Z,73.70
2018-03-18T19:47:30.369Z,73.60
2018-03-18T19:49:58.356Z,73.80
2018-03-18T19:52:26.034Z,74.10
2018-03-18T19:54:53.840Z,74.20
2018-03-18T19:57:21.538Z,74.90
2018-03-18T19:59:49.847Z,74.60
2018-03-18T20:02:17.403Z,74.70
2018-03-18T20:04:45.034Z,74.00
2018-03-18T20:07:12.618Z,73.60
2018-03-18T20:09:40.227Z,73.90
2018-03-18T20:12:07.947Z,73.90
2018-03-18T20:14:35.663Z,74.50
2018-03-18T20:17:03.979Z,74.20
2018-03-18T20:19:31.852Z,74.20
2018-03-18T20:22:00.620Z,73.60
2018-03-18T20:24:28.569Z,73.30
2018-03-18T20:26:58.061Z,73.80
2018-03-18T20:29:26.990Z,73.70
2018-03-18T20:31:57.794Z,73.80
2018-03-18T20:34:26.280Z,73.60
2018-03-18T20:36:54.771Z,73.90
2018-03-18T20:39:22.894Z,73.90
2018-03-18T20:41:50.453Z,73.90
2018-03-18T20:44:19.343Z,74.20
2018-03-18T20:46:47.107Z,74.20
2018-03-18T20:49:15.763Z,74.10
2018-03-18T20:51:44.342Z,74.20
2018-03-18T20:54:12.018Z,73.60
2018-03-18T20:56:44.428Z,73.60
2018-03-18T20:59:13.228Z,74.10
2018-03-18T21:01:40.882Z,74.30
2018-03-18T21:04:10.246Z,73.90
2018-03-18T21:06:38.742Z,74.10
2018-03-18T21:09:07.506Z,74.70
2018-03-18T21:11:35.141Z,74.70
2018-03-18T21:14:02.865Z,74.00
2018-03-18T21:16:30.528Z,74.50
2018-03-18T21:18:58.245Z,74.60
2018-03-18T21:21:27.220Z,74.30
2018-03-18T21:23:55.636Z,75.50
2018-03-18T21:26:24.010Z,75.00
2018-03-18T21:28:51.641Z,74.70
2018-03-18T21:31:19.278Z,75.10
2018-03-18T21:33:47.818Z,74.70
2018-03-18T21:36:15.490Z,75.20
2018-03-18T21:38:43.112Z,74.50
2018-03-18T21:41:10.713Z,74.80
2018-03-18T21:43:39.009Z,75.20
2018-03-18T21:46:07.258Z,75.30
2018-03-18T21:48:34.925Z,75.10
2018-03-18T21:51:02.569Z,75.20
2018-03-18T21:53:30.217Z,75.40
2018-03-18T21:55:57.765Z,75.20
2018-03-18T21:58:25.306Z,75.30
2018-03-18T22:00:52.821Z,75.30
2018-03-18T22:03:21.771Z,75.70
2018-03-18T22:05:50.371Z,75.60
2018-03-18T22:08:18.037Z,76.00
2018-03-18T22:10:45.646Z,75.30
2018-03-18T22:13:14.090Z,75.40
2018-03-18T22:15:42.261Z,75.30
2018-03-18T22:18:09.965Z,75.10
2018-03-18T22:20:39.072Z,75.10
2018-03-18T22:23:08.717Z,75.50
2018-03-18T22:25:36.419Z,75.50
2018-03-18T22:28:04.106Z,75.20
2018-03-18T22:30:32.554Z,75.40
2018-03-18T22:33:00.282Z,75.40
2018-03-18T22:35:27.973Z,75.50
2018-03-18T22:37:56.513Z,75.80
2018-03-18T22:40:24.146Z,75.10
2018-03-18T22:42:51.741Z,75.40
2018-03-18T22:45:20.305Z,75.30
2018-03-18T22:47:47.920Z,75.40
2018-03-18T22:50:15.885Z,75.60
2018-03-18T22:52:43.512Z,75.50
2018-03-18T22:55:11.950Z,75.70
2018-03-18T22:57:40.498Z,75.70
2018-03-18T23:00:09.673Z,76.10
2018-03-18T23:02:38.378Z,76.20
2018-03-18T23:05:06.061Z,75.50
2018-03-18T23:07:34.258Z,75.10
2018-03-18T23:10:02.668Z,76.00
2018-03-18T23:12:31.274Z,76.00
2018-03-18T23:14:59.710Z,75.90
2018-03-18T23:17:28.159Z,75.80
2018-03-18T23:19:55.830Z,76.10
2018-03-18T23:22:26.223Z,75.90
2018-03-18T23:24:54.272Z,75.80
2018-03-18T23:27:21.874Z,75.60
2018-03-18T23:29:49.573Z,75.70
2018-03-18T23:32:17.642Z,76.10
2018-03-18T23:34:45.744Z,76.30
2018-03-18T23:37:13.441Z,76.30
2018-03-18T23:39:41.885Z,76.40
2018-03-18T23:42:10.516Z,76.70
2018-03-18T23:44:38.546Z,76.00
2018-03-18T23:47:06.986Z,76.10
2018-03-18T23:49:34.621Z,75.90
2018-03-18T23:52:02.301Z,76.80
2018-03-18T23:54:29.829Z,76.30
2018-03-18T23:56:58.171Z,76.30
2018-03-18T23:59:25.680Z,76.30
